Time;durP1;ratioP1;P1;durP2;ratioP2;P2;SDS_P1;SDS_P2;PMS_P1;PMS_P2;Temp;Humidity;BMP_temperature;BMP_pressure;BME280_temperature;BME280_humidity;BME280_pressure;Samples;Min_cycle;Max_cycle;Signal;HPM_P1;HPM_P2
2022/04/28 00:00:20;;;;;;;;;;;;;;;19.13;66.53;100831.81;4941303;29;1903;-60
2022/04/28 00:02:47;;;;;;;;;;;;;;;19.15;66.36;100832.53;4936949;29;1579;-63
2022/04/28 00:05:14;;;;;;;;;;;;;;;19.11;66.40;100829.25;4939186;29;1734;-62
2022/04/28 00:07:42;;;;;;;;;;;;;;;19.14;66.21;100828.13;4939238;29;1488;-63
2022/04/28 00:10:10;;;;;;;;;;;;;;;19.11;66.12;100821.22;4942096;29;1583;-65
2022/04/28 00:12:36;;;;;;;;;;;;;;;19.12;66.52;100819.38;4940746;29;1714;-60
2022/04/28 00:15:03;;;;;;;;;;;;;;;19.12;65.99;100828.31;4941595;29;1754;-65
2022/04/28 00:17:30;;;;;;;;;;;;;;;19.14;66.31;100822.78;4941814;29;1357;-60
2022/04/28 00:19:57;;;;;;;;;;;;;;;19.12;65.99;100825.63;4937218;29;1626;-60
2022/04/28 00:22:24;;;;;;;;;;;;;;;19.11;66.54;100817.69;4937452;29;1590;-60
2022/04/28 00:24:52;;;;;;;;;;;;;;;19.12;66.10;100816.69;4939824;29;1586;-66
2022/04/28 00:27:19;;;;;;;;;;;;;;;19.08;66.19;100811.63;4938330;29;1523;-60
2022/04/28 00:29:45;;;;;;;;;;;;;;;19.13;66.46;100821.09;4940857;29;1594;-60
2022/04/28 00:32:12;;;;;;;;;;;;;;;19.10;66.45;100805.28;4940890;29;1592;-60
2022/04/28 00:34:38;;;;;;;;;;;;;;;19.10;66.67;100821.34;4937613;29;1771;-65
2022/04/28 00:37:09;;;;;;;;;;;;;;;19.10;66.22;100816.00;4940521;29;1692;-59
2022/04/28 00:39:36;;;;;;;;;;;;;;;19.12;66.46;100824.75;4945179;29;1616;-63
2022/04/28 00:42:07;;;;;;;;;;;;;;;19.12;66.32;100819.38;4940166;29;1980;-58
2022/04/28 00:44:34;;;;;;;;;;;;;;;19.05;66.31;100803.84;4944007;29;1591;-58
2022/04/28 00:47:00;;;;;;;;;;;;;;;19.08;66.35;100808.94;4942186;29;1753;-57
2022/04/28 00:52:11;;;;;;;;;;;;;;;19.09;66.13;100780.31;4947204;29;1594;-58
2022/04/28 00:54:38;;;;;;;;;;;;;;;19.08;66.36;100766.06;4949003;29;1506;-56
2022/04/28 00:57:06;;;;;;;;;;;;;;;19.05;66.32;100752.09;4944188;29;1574;-60
2022/04/28 00:59:32;;;;;;;;;;;;;;;19.06;66.04;100753.78;4943291;29;1454;-59
2022/04/28 01:01:59;;;;;;;;;;;;;;;19.10;66.46;100789.19;4942605;29;1907;-59
2022/04/28 01:04:26;;;;;;;;;;;;;;;19.04;66.35;100802.16;4941290;29;1541;-55
2022/04/28 01:06:53;;;;;;;;;;;;;;;19.12;66.37;100830.09;4942337;29;1587;-54
2022/04/28 01:09:19;;;;;;;;;;;;;;;19.07;66.34;100844.75;4942299;29;1592;-60
2022/04/28 01:11:46;;;;;;;;;;;;;;;19.08;66.61;100870.59;4941947;29;1538;-56
2022/04/28 01:14:14;;;;;;;;;;;;;;;19.06;66.41;100869.03;4942572;29;1587;-59
2022/04/28 01:16:40;;;;;;;;;;;;;;;19.11;66.51;100887.41;4942484;29;1763;-55
2022/04/28 01:19:07;;;;;;;;;;;;;;;19.07;66.51;100882.28;4939244;29;1726;-55
2022/04/28 01:21:35;;;;;;;;;;;;;;;19.10;66.67;100896.41;4939309;29;1919;-55
2022/04/28 01:24:03;;;;;;;;;;;;;;;19.07;66.37;100876.94;4939137;29;1466;-55
2022/04/28 01:26:29;;;;;;;;;;;;;;;19.06;66.59;100875.25;4941723;29;1671;-59
2022/04/28 01:28:56;;;;;;;;;;;;;;;19.05;66.74;100889.63;4944870;29;1567;-59
2022/04/28 01:31:23;;;;;;;;;;;;;;;19.04;66.08;100898.66;4945005;29;1386;-59
2022/04/28 01:33:49;;;;;;;;;;;;;;;19.06;66.38;100890.47;4943614;29;1565;-54
2022/04/28 01:36:16;;;;;;;;;;;;;;;19.08;66.46;100900.09;4939211;29;1692;-62
2022/04/28 01:38:44;;;;;;;;;;;;;;;19.02;66.42;100892.56;4946388;29;1511;-61
2022/04/28 01:41:11;;;;;;;;;;;;;;;19.04;66.75;100885.25;4943632;29;1906;-62
2022/04/28 01:43:37;;;;;;;;;;;;;;;19.02;66.54;100895.25;4942711;29;1565;-62
2022/04/28 01:46:04;;;;;;;;;;;;;;;19.02;66.44;100895.25;4942524;29;1559;-57
2022/04/28 01:48:31;;;;;;;;;;;;;;;19.01;66.39;100896.22;4938108;29;1595;-58
2022/04/28 01:56:26;;;;;;;;;;;;;;;19.02;66.02;100916.69;4945789;29;1566;-57
2022/04/28 01:58:53;;;;;;;;;;;;;;;19.02;66.19;100911.34;4940256;29;1404;-62
2022/04/28 02:01:20;;;;;;;;;;;;;;;19.00;66.06;100918.66;4936644;29;1968;-62
2022/04/28 02:03:46;;;;;;;;;;;;;;;19.00;66.07;100937.41;4937762;29;1522;-62
2022/04/28 02:06:13;;;;;;;;;;;;;;;19.00;65.95;100929.38;4937827;29;1383;-57
2022/04/28 02:08:40;;;;;;;;;;;;;;;19.01;66.05;100938.25;4943618;29;1590;-57
2022/04/28 02:11:07;;;;;;;;;;;;;;;18.97;66.00;100935.00;4934474;29;1606;-57
2022/04/28 02:13:35;;;;;;;;;;;;;;;18.99;66.07;100938.38;4937651;29;1391;-57
2022/04/28 02:16:02;;;;;;;;;;;;;;;18.98;66.28;100936.69;4947607;29;1518;-57
2022/04/28 02:18:29;;;;;;;;;;;;;;;18.98;66.21;100963.50;4937998;29;1734;-62
2022/04/28 02:20:55;;;;;;;;;;;;;;;19.00;66.10;100939.22;4937969;29;1975;-57
2022/04/28 02:23:22;;;;;;;;;;;;;;;18.95;66.10;100936.09;4939823;29;1472;-57
2022/04/28 02:25:49;;;;;;;;;;;;;;;19.00;66.08;100964.22;4943603;29;1371;-62
2022/04/28 02:28:15;;;;;;;;;;;;;;;18.96;66.20;100965.47;4934051;29;1571;-61
2022/04/28 02:30:43;;;;;;;;;;;;;;;18.95;66.41;100969.13;4943959;29;1321;-62
2022/04/28 02:33:10;;;;;;;;;;;;;;;18.91;66.29;100956.13;4938645;29;1521;-62
2022/04/28 02:35:36;;;;;;;;;;;;;;;18.96;66.37;100976.19;4940748;29;1718;-57
2022/04/28 02:38:03;;;;;;;;;;;;;;;18.95;66.02;100963.75;4943159;29;1602;-61
2022/04/28 02:40:30;;;;;;;;;;;;;;;18.95;66.21;100961.06;4939487;29;1511;-60
2022/04/28 02:42:56;;;;;;;;;;;;;;;18.94;66.09;100950.47;4941292;29;1970;-62
2022/04/28 02:45:23;;;;;;;;;;;;;;;18.95;66.41;100954.88;4943242;29;1519;-62
2022/04/28 02:47:51;;;;;;;;;;;;;;;18.93;66.04;100943.44;4941551;29;1538;-57
2022/04/28 02:50:18;;;;;;;;;;;;;;;18.92;66.33;100958.66;4940626;29;1583;-57
2022/04/28 02:52:44;;;;;;;;;;;;;;;18.95;66.32;100957.56;4941366;29;1536;-62
2022/04/28 02:55:11;;;;;;;;;;;;;;;18.91;66.27;100938.19;4944755;29;1578;-57
2022/04/28 02:57:37;;;;;;;;;;;;;;;18.91;66.08;100943.56;4941515;29;1526;-62
2022/04/28 03:00:05;;;;;;;;;;;;;;;18.91;66.01;100956.94;4937889;29;1507;-57
2022/04/28 03:02:32;;;;;;;;;;;;;;;18.92;66.32;100953.31;4938937;29;1968;-57
2022/04/28 03:05:01;;;;;;;;;;;;;;;18.91;66.41;100946.22;4939236;29;1586;-57
2022/04/28 03:12:58;;;;;;;;;;;;;;;18.88;66.20;100936.63;4939265;29;1399;-61
2022/04/28 03:15:25;;;;;;;;;;;;;;;18.87;66.29;100939.44;4939132;29;1359;-62
2022/04/28 03:17:51;;;;;;;;;;;;;;;18.86;66.19;100935.03;4943826;29;1629;-62
2022/04/28 03:20:19;;;;;;;;;;;;;;;18.90;66.07;100943.69;4939039;29;1591;-62
2022/04/28 03:22:47;;;;;;;;;;;;;;;18.88;66.18;100933.97;4939517;29;1918;-57
2022/04/28 03:25:13;;;;;;;;;;;;;;;18.90;66.08;100936.50;4942366;29;1468;-57
2022/04/28 03:27:40;;;;;;;;;;;;;;;18.87;66.25;100950.16;4937699;29;1718;-57
2022/04/28 03:30:08;;;;;;;;;;;;;;;18.90;66.06;100965.13;4942293;29;1637;-62
2022/04/28 03:32:34;;;;;;;;;;;;;;;18.82;66.38;100944.31;4939294;29;1685;-57
2022/04/28 03:35:01;;;;;;;;;;;;;;;18.90;65.70;100947.22;4939399;29;1594;-62
2022/04/28 03:37:29;;;;;;;;;;;;;;;18.79;65.53;100925.81;4939483;29;1595;-62
2022/04/28 03:39:55;;;;;;;;;;;;;;;18.84;65.69;100950.41;4939129;29;1384;-57
2022/04/28 03:42:22;;;;;;;;;;;;;;;18.84;66.51;100983.44;4941287;29;1975;-57
2022/04/28 03:44:49;;;;;;;;;;;;;;;18.84;66.74;100990.59;4933242;29;1534;-62
2022/04/28 03:47:16;;;;;;;;;;;;;;;18.80;66.75;100982.00;4939329;29;1383;-57
2022/04/28 03:49:43;;;;;;;;;;;;;;;18.81;66.54;100989.03;4941686;29;1745;-61
2022/04/28 03:52:09;;;;;;;;;;;;;;;18.76;66.78;100987.69;4942126;29;1645;-62
2022/04/28 03:54:37;;;;;;;;;;;;;;;18.76;66.83;100999.28;4945651;29;1590;-62
2022/04/28 03:57:04;;;;;;;;;;;;;;;18.75;66.79;100986.84;4941017;29;1522;-57
2022/04/28 03:59:31;;;;;;;;;;;;;;;18.74;66.68;100969.09;4939234;29;1596;-57
2022/04/28 04:01:57;;;;;;;;;;;;;;;18.77;66.75;100970.63;4937803;29;1910;-62
2022/04/28 04:04:24;;;;;;;;;;;;;;;18.76;66.60;100960.88;4933195;29;1640;-57
2022/04/28 04:06:51;;;;;;;;;;;;;;;18.74;66.33;100978.91;4938347;29;1557;-57
2022/04/28 04:09:18;;;;;;;;;;;;;;;18.81;66.26;100999.75;4941256;29;1730;-62
2022/04/28 04:11:46;;;;;;;;;;;;;;;18.79;66.34;101008.88;4941360;29;1784;-57
2022/04/28 04:14:13;;;;;;;;;;;;;;;18.82;66.17;101027.38;4932920;29;1512;-57
2022/04/28 04:16:39;;;;;;;;;;;;;;;18.85;66.32;101033.34;4945836;29;1528;-62
2022/04/28 04:19:06;;;;;;;;;;;;;;;18.89;65.77;101044.66;4937837;29;1851;-62
2022/04/28 04:21:32;;;;;;;;;;;;;;;18.96;65.69;101021.75;4937917;29;1973;-57
2022/04/28 04:23:59;;;;;;;;;;;;;;;19.02;65.69;101018.53;4938036;29;1695;-57
2022/04/28 04:26:26;;;;;;;;;;;;;;;18.99;65.53;101028.66;4946829;29;1400;-60
2022/04/28 04:28:53;;;;;;;;;;;;;;;18.96;66.00;101048.53;4944991;29;1755;-57
2022/04/28 04:34:04;;;;;;;;;;;;;;;19.12;66.09;101041.88;4945034;29;1627;-61
2022/04/28 04:36:31;;;;;;;;;;;;;;;19.10;65.54;101043.84;4945478;29;1792;-57
2022/04/28 04:38:58;;;;;;;;;;;;;;;19.13;66.24;101039.06;4945790;29;1761;-60
2022/04/28 04:41:24;;;;;;;;;;;;;;;19.18;66.08;101041.34;4945350;29;1906;-56
2022/04/28 04:43:51;;;;;;;;;;;;;;;19.23;66.13;101039.13;4945542;29;1373;-56
2022/04/28 04:46:19;;;;;;;;;;;;;;;19.28;65.86;101039.63;4949761;29;1645;-56
2022/04/28 04:48:45;;;;;;;;;;;;;;;19.37;65.73;101022.72;4941900;29;1870;-60
2022/04/28 04:51:12;;;;;;;;;;;;;;;19.32;65.61;101035.69;4941952;29;1563;-61
2022/04/28 04:53:39;;;;;;;;;;;;;;;19.30;65.18;101032.28;4944630;29;1390;-60
2022/04/28 04:56:05;;;;;;;;;;;;;;;19.24;65.34;101032.81;4937040;29;1779;-55
2022/04/28 04:58:32;;;;;;;;;;;;;;;19.14;65.28;101043.47;4939108;29;1610;-56
2022/04/28 05:00:59;;;;;;;;;;;;;;;19.06;65.19;101054.84;4943550;29;1523;-56
2022/04/28 05:03:26;;;;;;;;;;;;;;;19.00;64.98;101047.31;4943175;29;1906;-56
2022/04/28 05:05:53;;;;;;;;;;;;;;;18.96;64.83;101040.50;4944199;29;1374;-55
2022/04/28 05:08:20;;;;;;;;;;;;;;;18.97;64.70;101055.59;4943930;29;1709;-61
2022/04/28 05:10:47;;;;;;;;;;;;;;;18.97;64.73;101060.94;4946317;29;1602;-56
2022/04/28 05:13:13;;;;;;;;;;;;;;;18.96;64.51;101069.09;4937092;29;1579;-56
2022/04/28 05:15:40;;;;;;;;;;;;;;;18.97;64.40;101069.00;4946099;29;1562;-55
2022/04/28 05:18:07;;;;;;;;;;;;;;;18.97;64.78;101070.81;4941984;29;1514;-61
2022/04/28 05:20:35;;;;;;;;;;;;;;;18.97;64.93;101079.72;4942849;29;1659;-56
2022/04/28 05:23:01;;;;;;;;;;;;;;;18.95;64.70;101073.63;4935378;29;1983;-61
2022/04/28 05:25:29;;;;;;;;;;;;;;;18.93;64.93;101088.97;4939551;29;1422;-60
2022/04/28 05:27:56;;;;;;;;;;;;;;;18.96;64.82;101099.47;4941396;29;1614;-56
2022/04/28 05:30:23;;;;;;;;;;;;;;;18.98;65.13;101112.72;4941248;29;1579;-55
2022/04/28 05:32:49;;;;;;;;;;;;;;;18.93;65.13;101110.41;4945450;29;1626;-56
2022/04/28 05:35:16;;;;;;;;;;;;;;;18.95;65.28;101124.53;4940649;29;1702;-55
2022/04/28 05:37:44;;;;;;;;;;;;;;;18.94;65.03;101132.69;4946126;29;1684;-55
2022/04/28 05:40:12;;;;;;;;;;;;;;;18.93;64.87;101147.94;4940275;29;1350;-61
2022/04/28 05:48:08;;;;;;;;;;;;;;;18.89;64.68;101135.78;4943513;29;1468;-59
2022/04/28 05:50:35;;;;;;;;;;;;;;;18.93;65.02;101142.59;4944154;29;1637;-59
2022/04/28 05:53:03;;;;;;;;;;;;;;;18.91;64.76;101149.06;4944071;29;1430;-55
2022/04/28 05:55:29;;;;;;;;;;;;;;;18.87;64.93;101148.44;4948773;29;1480;-56
2022/04/28 05:57:58;;;;;;;;;;;;;;;18.88;64.65;101140.28;4945619;29;1575;-56
2022/04/28 06:00:25;;;;;;;;;;;;;;;18.88;64.99;101134.94;4944100;29;1796;-60
2022/04/28 06:02:52;;;;;;;;;;;;;;;18.89;64.80;101141.13;4943882;29;1977;-55
2022/04/28 06:05:18;;;;;;;;;;;;;;;18.88;64.74;101150.16;4939371;29;1883;-56
2022/04/28 06:07:45;;;;;;;;;;;;;;;18.89;65.20;101151.84;4941516;29;1567;-60
2022/04/28 06:10:13;;;;;;;;;;;;;;;18.87;64.87;101148.44;4943298;29;1520;-56
2022/04/28 06:12:40;;;;;;;;;;;;;;;18.87;64.93;101141.25;4943808;29;1607;-60
2022/04/28 06:15:07;;;;;;;;;;;;;;;18.87;65.06;101137.72;4941184;29;1701;-55
2022/04/28 06:17:34;;;;;;;;;;;;;;;18.86;65.26;101107.41;4947529;29;1613;-56
2022/04/28 06:20:00;;;;;;;;;;;;;;;18.85;64.86;101086.09;4938626;29;1630;-56
2022/04/28 06:22:27;;;;;;;;;;;;;;;18.83;64.87;101077.34;4938094;29;1906;-60
2022/04/28 06:24:54;;;;;;;;;;;;;;;18.82;64.36;101078.28;4940440;29;1375;-61
2022/04/28 06:27:22;;;;;;;;;;;;;;;18.83;64.31;101071.97;4941206;29;1609;-55
2022/04/28 06:29:49;;;;;;;;;;;;;;;18.82;63.69;101080.97;4942948;29;1637;-61
2022/04/28 06:32:16;;;;;;;;;;;;;;;18.83;64.08;101082.69;4939779;29;1773;-61
2022/04/28 06:34:42;;;;;;;;;;;;;;;18.83;64.23;101080.00;4943494;29;1445;-56
2022/04/28 06:37:09;;;;;;;;;;;;;;;18.82;64.06;101092.56;4942535;29;1048;-56
2022/04/28 06:39:36;;;;;;;;;;;;;;;18.84;64.00;101114.72;4940157;29;1872;-60
2022/04/28 06:42:03;;;;;;;;;;;;;;;18.77;64.65;101115.31;4937076;29;1907;-61
2022/04/28 06:44:31;;;;;;;;;;;;;;;18.87;64.30;101122.50;4938593;29;1307;-60
2022/04/28 06:46:57;;;;;;;;;;;;;;;18.93;64.50;101126.50;4942727;28;1804;-55
2022/04/28 06:49:24;;;;;;;;;;;;;;;18.92;65.02;101140.91;4937480;29;1586;-56
2022/04/28 06:51:50;;;;;;;;;;;;;;;18.91;64.48;101149.91;4939411;29;1583;-60
2022/04/28 06:55:33;;;;;;;;;;;;;;;18.95;64.56;101143.31;7433658;19;1469;-41
2022/04/28 06:58:01;;;;;;;;;;;;;;;18.94;64.50;101146.97;7435293;19;1853;-41
2022/04/28 07:00:29;;;;;;;;;;;;;;;18.94;64.66;101154.16;7436400;19;1578;-42
2022/04/28 07:02:57;;;;;;;;;;;;;;;19.02;64.42;101163.28;7437073;19;1440;-41
2022/04/28 07:05:26;;;;;;;;;;;;;;;18.99;64.53;101147.44;7435595;19;1496;-41
2022/04/28 07:07:54;;;;;;;;;;;;;;;18.95;64.82;101171.94;7445061;19;1455;-42
2022/04/28 07:10:22;;;;;;;;;;;;;;;18.91;65.10;101133.81;7439350;19;1554;-41
2022/04/28 07:12:53;;;;;;;;;;;;;;;18.91;65.17;101149.91;7436533;19;1656;-41
2022/04/28 07:15:21;;;;;;;;;;;;;;;18.90;65.19;101156.25;7432841;19;1934;-41
2022/04/28 07:17:50;;;;;;;;;;;;;;;18.88;65.31;101166.25;7437148;19;1860;-41
2022/04/28 07:20:18;;;;;;;;;;;;;;;18.88;65.45;101171.59;7435547;19;1707;-41
2022/04/28 07:22:48;;;;;;;;;;;;;;;18.88;65.49;101174.28;7434563;19;1589;-41
2022/04/28 07:25:17;;;;;;;;;;;;;;;18.86;65.68;101173.53;7435508;19;1503;-41
2022/04/28 07:27:45;;;;;;;;;;;;;;;18.88;65.44;101174.28;7435819;19;2029;-41
2022/04/28 07:30:18;;;;;;;;;;;;;;;18.87;65.60;101185.97;7438176;19;1680;-41
2022/04/28 07:32:46;;;;;;;;;;;;;;;18.87;65.37;101191.31;7449731;19;1032;-41
2022/04/28 07:35:14;;;;;;;;;;;;;;;18.85;65.75;101182.56;7430794;19;1866;-41
2022/04/28 07:37:46;;;;;;;;;;;;;;;18.76;65.87;101183.25;7434944;19;1423;-40
2022/04/28 07:40:14;;;;;;;;;;;;;;;18.82;65.77;101189.03;7432344;19;1840;-41
2022/04/28 07:42:42;;;;;;;;;;;;;;;18.87;65.30;101185.97;7432993;19;1755;-41
2022/04/28 07:45:11;;;;;;;;;;;;;;;18.88;65.59;101187.69;7434898;19;1496;-42
2022/04/28 07:47:42;;;;;;;;;;;;;;;18.88;65.67;101187.69;7434850;19;1929;-42
2022/04/28 07:50:10;;;;;;;;;;;;;;;18.89;65.24;101194.72;7435490;19;1423;-41
2022/04/28 07:52:39;;;;;;;;;;;;;;;18.91;65.12;101191.94;7433604;19;1728;-41
2022/04/28 07:55:08;;;;;;;;;;;;;;;18.89;65.26;101181.31;7432631;19;1874;-41
2022/04/28 07:57:36;;;;;;;;;;;;;;;18.92;65.39;101194.50;7434413;19;1370;-41
2022/04/28 08:00:05;;;;;;;;;;;;;;;18.93;65.32;101201.53;7434901;19;1414;-41
2022/04/28 08:02:36;;;;;;;;;;;;;;;18.94;65.26;101197.03;7431592;19;1621;-41
2022/04/28 08:05:08;;;;;;;;;;;;;;;18.96;65.25;101198.63;7424787;19;1391;-41
2022/04/28 08:07:36;;;;;;;;;;;;;;;18.96;65.23;101201.31;7405035;19;1321;-41
2022/04/28 08:10:05;;;;;;;;;;;;;;;19.03;65.44;101197.13;7402731;19;1520;-41
2022/04/28 08:12:34;;;;;;;;;;;;;;;19.11;64.94;101204.56;7404482;19;1474;-41
2022/04/28 08:15:02;;;;;;;;;;;;;;;19.17;64.78;101197.84;7403945;19;1875;-42
2022/04/28 08:17:30;;;;;;;;;;;;;;;19.20;65.20;101200.25;7404606;19;1486;-41
2022/04/28 08:19:58;;;;;;;;;;;;;;;19.21;65.37;101175.16;7404464;19;1621;-42
2022/04/28 08:22:29;;;;;;;;;;;;;;;19.22;65.71;101196.47;7404973;19;1582;-41
2022/04/28 08:24:57;;;;;;;;;;;;;;;19.29;65.26;101212.91;7405004;19;1915;-40
2022/04/28 08:27:26;;;;;;;;;;;;;;;19.30;65.20;101194.97;7404333;19;1735;-41
2022/04/28 08:29:54;;;;;;;;;;;;;;;19.27;65.70;101198.78;7404437;19;1526;-41
2022/04/28 08:32:22;;;;;;;;;;;;;;;19.28;65.80;101221.94;7405286;19;1586;-41
2022/04/28 08:34:50;;;;;;;;;;;;;;;19.27;65.60;101198.78;7403474;19;1863;-42
2022/04/28 08:37:19;;;;;;;;;;;;;;;19.32;65.30;101211.78;7403741;19;1562;-42
2022/04/28 08:39:49;;;;;;;;;;;;;;;19.25;65.38;101214.13;7405729;19;1478;-41
2022/04/28 08:42:20;;;;;;;;;;;;;;;19.22;65.58;101209.88;7404180;19;1794;-41
2022/04/28 08:44:49;;;;;;;;;;;;;;;19.19;65.52;101210.13;7405885;19;1346;-41
2022/04/28 08:47:17;;;;;;;;;;;;;;;19.22;65.79;101198.31;7404509;19;1838;-41
2022/04/28 08:49:48;;;;;;;;;;;;;;;19.18;66.05;101202.19;7403809;19;1501;-41
2022/04/28 08:52:19;;;;;;;;;;;;;;;19.21;66.03;101204.66;7404225;19;1511;-42
2022/04/28 08:54:49;;;;;;;;;;;;;;;19.21;65.91;101204.66;7402204;19;1850;-41
2022/04/28 08:57:18;;;;;;;;;;;;;;;19.22;66.11;101206.38;7404659;19;1653;-42
2022/04/28 08:59:48;;;;;;;;;;;;;;;19.29;66.44;101215.59;7404368;19;1475;-41
2022/04/28 09:02:17;;;;;;;;;;;;;;;19.36;66.20;101218.59;7401214;19;1431;-41
2022/04/28 09:04:45;;;;;;;;;;;;;;;19.32;65.99;101228.75;7403718;19;1501;-41
2022/04/28 09:07:13;;;;;;;;;;;;;;;19.24;66.77;101225.84;7403673;19;1536;-42
2022/04/28 09:09:41;;;;;;;;;;;;;;;19.20;66.69;101219.00;7404805;19;1676;-42
2022/04/28 09:12:13;;;;;;;;;;;;;;;19.18;66.92;101211.13;7404419;19;1694;-41
2022/04/28 09:14:43;;;;;;;;;;;;;;;19.18;66.92;101213.81;7403165;19;1855;-41
2022/04/28 09:17:11;;;;;;;;;;;;;;;19.17;66.89;101220.13;7399591;19;1732;-42
2022/04/28 09:19:40;;;;;;;;;;;;;;;19.16;66.47;101214.88;7402609;19;1787;-42
2022/04/28 09:22:09;;;;;;;;;;;;;;;19.20;66.58;101227.06;7401526;19;1495;-42
2022/04/28 09:24:39;;;;;;;;;;;;;;;19.31;66.37;101207.44;7404160;19;1549;-41
2022/04/28 09:27:07;;;;;;;;;;;;;;;19.34;66.55;101220.56;7404124;19;1438;-41
2022/04/28 09:29:39;;;;;;;;;;;;;;;19.27;66.86;101204.13;7402663;19;1581;-41
2022/04/28 09:32:11;;;;;;;;;;;;;;;19.24;66.86;101233.91;7403240;19;1212;-41
2022/04/28 09:34:47;;;;;;;;;;;;;;;19.22;67.06;101211.72;7400393;19;1857;-41
2022/04/28 09:37:18;;;;;;;;;;;;;;;19.21;67.01;101220.72;7404558;19;979;-41
2022/04/28 09:42:35;;;;;;;;;;;;;;;19.15;66.71;101221.25;7403383;19;1486;-42
2022/04/28 09:45:07;;;;;;;;;;;;;;;19.16;66.75;101214.88;7401631;19;1735;-42
2022/04/28 09:47:36;;;;;;;;;;;;;;;19.20;66.63;101219.91;7403720;19;1375;-41
2022/04/28 09:50:14;;;;;;;;;;;;;;;19.20;66.28;101235.09;7402269;19;1277;-41
2022/04/28 09:52:42;;;;;;;;;;;;;;;19.16;66.80;101214.88;7401898;19;1475;-41
2022/04/28 09:55:10;;;;;;;;;;;;;;;19.18;66.55;101223.66;7401293;19;1858;-41
2022/04/28 09:57:41;;;;;;;;;;;;;;;19.25;66.66;101232.91;7401745;19;1775;-41
2022/04/28 10:00:12;;;;;;;;;;;;;;;18.79;66.38;101231.25;7402333;19;1561;-42
2022/04/28 10:02:41;;;;;;;;;;;;;;;18.75;67.74;101246.72;7399818;19;1709;-41
2022/04/28 10:05:10;;;;;;;;;;;;;;;18.91;67.03;101232.13;7401324;19;1476;-41
2022/04/28 10:07:38;;;;;;;;;;;;;;;18.99;66.61;101249.28;7402295;19;1541;-42
2022/04/28 10:10:07;;;;;;;;;;;;;;;19.02;66.37;101243.69;7402340;19;1652;-41
2022/04/28 10:12:35;;;;;;;;;;;;;;;19.01;66.08;101235.75;7403651;19;1568;-44
2022/04/28 10:15:06;;;;;;;;;;;;;;;18.93;66.23;101225.66;7400757;19;1849;-44
2022/04/28 10:17:40;;;;;;;;;;;;;;;19.02;66.19;101245.50;7404072;19;1102;-44
2022/04/28 10:20:11;;;;;;;;;;;;;;;18.99;66.21;101238.56;7410050;19;1691;-44
2022/04/28 10:22:41;;;;;;;;;;;;;;;19.02;66.19;101250.84;7402463;19;1833;-44
2022/04/28 10:33:23;;;;;;;;;;;;;;;19.00;66.84;101234.91;7402617;19;1605;-44
2022/04/28 10:35:56;;;;;;;;;;;;;;;18.97;66.68;101242.34;7400451;19;1845;-44
2022/04/28 10:38:26;;;;;;;;;;;;;;;18.98;66.98;101247.59;7400333;19;1630;-44
2022/04/28 10:40:58;;;;;;;;;;;;;;;18.98;66.84;101247.59;7399895;19;1479;-44
2022/04/28 10:43:28;;;;;;;;;;;;;;;18.96;66.47;101259.38;7409199;19;1752;-44
2022/04/28 10:45:57;;;;;;;;;;;;;;;18.96;66.42;101281.72;7401737;19;1768;-44
2022/04/28 10:48:35;;;;;;;;;;;;;;;18.94;66.63;101269.38;7402521;19;1082;-44
2022/04/28 10:51:10;;;;;;;;;;;;;;;18.93;66.55;101265.84;7399613;19;1535;-44
2022/04/28 10:53:38;;;;;;;;;;;;;;;18.96;67.04;101256.72;7400184;19;1876;-42
2022/04/28 10:56:12;;;;;;;;;;;;;;;18.98;66.55;101263.69;7398540;19;1841;-42
2022/04/28 10:58:41;;;;;;;;;;;;;;;18.95;66.52;101269.25;7401085;19;1664;-41
2022/04/28 11:01:09;;;;;;;;;;;;;;;18.92;67.06;101272.22;7398723;19;1715;-42
2022/04/28 11:03:55;;;;;;;;;;;;;;;18.91;66.55;101283.03;7400688;19;1860;-41
2022/04/28 11:06:31;;;;;;;;;;;;;;;18.91;66.66;101283.03;7401047;19;1791;-41
2022/04/28 11:09:01;;;;;;;;;;;;;;;18.87;66.87;101261.84;7399806;19;1618;-41
2022/04/28 11:11:31;;;;;;;;;;;;;;;18.88;66.59;101278.78;7400048;19;1831;-42
2022/04/28 11:14:01;;;;;;;;;;;;;;;18.84;66.92;101255.88;7399781;19;1530;-41
2022/04/28 11:16:29;;;;;;;;;;;;;;;18.86;66.69;101286.06;7398367;19;1851;-41
2022/04/28 11:18:58;;;;;;;;;;;;;;;18.85;67.03;101252.22;7400513;19;1668;-41
2022/04/28 11:21:30;;;;;;;;;;;;;;;18.83;66.80;101259.53;7400176;19;1807;-41
2022/04/28 11:23:58;;;;;;;;;;;;;;;18.90;66.71;101257.19;7398012;19;1502;-41
2022/04/28 11:26:27;;;;;;;;;;;;;;;18.94;66.73;101280.09;7399163;19;1755;-42
2022/04/28 11:28:56;;;;;;;;;;;;;;;18.92;66.78;101266.84;7399074;19;1594;-41
2022/04/28 11:31:24;;;;;;;;;;;;;;;18.92;66.79;101290.97;7399218;19;1336;-41
2022/04/28 11:33:53;;;;;;;;;;;;;;;18.92;67.15;101299.00;7398569;19;1801;-41
2022/04/28 11:36:23;;;;;;;;;;;;;;;18.92;66.61;101282.94;7396733;19;1863;-42
2022/04/28 11:38:55;;;;;;;;;;;;;;;18.88;66.91;101273.44;7398946;19;1798;-42
2022/04/28 11:41:34;;;;;;;;;;;;;;;18.87;67.37;101253.78;7402854;19;1388;-42
2022/04/28 11:44:08;;;;;;;;;;;;;;;18.90;67.02;101284.88;7406512;19;1457;-41
2022/04/28 11:46:37;;;;;;;;;;;;;;;18.93;67.28;101271.22;7402999;19;2233;-41
2022/04/28 11:49:06;;;;;;;;;;;;;;;18.96;67.12;101275.47;7404508;19;1552;-41
2022/04/28 11:51:35;;;;;;;;;;;;;;;18.95;67.11;101284.50;7405845;19;1512;-41
2022/04/28 11:54:06;;;;;;;;;;;;;;;18.91;67.07;101278.53;7405891;19;1614;-41
2022/04/28 11:56:35;;;;;;;;;;;;;;;18.91;67.16;101275.00;7404444;19;1956;-41
2022/04/28 11:59:07;;;;;;;;;;;;;;;18.90;66.89;101275.97;7407317;19;1309;-41
2022/04/28 12:01:35;;;;;;;;;;;;;;;18.88;67.13;101262.72;7406022;19;1671;-41
2022/04/28 12:04:05;;;;;;;;;;;;;;;18.91;67.17;101273.16;7405779;19;1633;-41
2022/04/28 12:06:33;;;;;;;;;;;;;;;18.90;67.00;101258.09;7406498;19;1708;-41
2022/04/28 12:14:21;;;;;;;;;;;;;;;18.91;66.52;101259.78;7404936;19;1759;-41
2022/04/28 12:14:34;;;;;;;;;;;;;;;19.02;67.06;101259.78;7405316;19;1735;-41
2022/04/28 12:19:55;;;;;;;;;;;;;;;18.95;67.31;101258.53;7406437;19;1893;-41
2022/04/28 12:22:30;;;;;;;;;;;;;;;18.93;67.22;101244.41;7404913;19;1573;-41
2022/04/28 12:25:04;;;;;;;;;;;;;;;18.92;67.40;101237.38;7406591;19;1422;-41
2022/04/28 12:27:43;;;;;;;;;;;;;;;18.93;67.30;101248.94;7404452;19;1861;-42
2022/04/28 12:30:13;;;;;;;;;;;;;;;18.92;67.42;101258.81;7405210;19;1648;-41
2022/04/28 12:32:45;;;;;;;;;;;;;;;18.90;67.28;101228.59;7406577;19;1535;-41
2022/04/28 12:35:22;;;;;;;;;;;;;;;18.94;67.33;101258.66;7404748;19;1857;-41
2022/04/28 12:37:55;;;;;;;;;;;;;;;18.92;66.95;101263.28;7405121;19;1462;-41
2022/04/28 12:40:24;;;;;;;;;;;;;;;18.92;67.50;101263.28;7405138;19;1671;-41
2022/04/28 12:42:55;;;;;;;;;;;;;;;18.87;67.00;101239.56;7406318;19;970;-41
2022/04/28 12:45:40;;;;;;;;;;;;;;;18.86;67.53;101259.28;7405168;19;1837;-41
2022/04/28 12:48:09;;;;;;;;;;;;;;;18.84;67.44;101248.69;7405320;19;1470;-41
2022/04/28 12:50:37;;;;;;;;;;;;;;;18.87;67.16;101243.06;7403099;19;1587;-41
2022/04/28 12:53:05;;;;;;;;;;;;;;;18.83;67.37;101249.66;7404426;19;1697;-41
2022/04/28 12:55:40;;;;;;;;;;;;;;;18.86;67.11;101264.63;7402594;19;1916;-41
2022/04/28 12:58:12;;;;;;;;;;;;;;;18.87;66.99;101250.28;7404845;19;1439;-41
2022/04/28 13:00:42;;;;;;;;;;;;;;;18.85;67.21;101263.78;7403230;19;1534;-43
2022/04/28 13:03:10;;;;;;;;;;;;;;;18.85;67.63;101271.81;7404074;19;1601;-44
2022/04/28 13:05:38;;;;;;;;;;;;;;;18.83;67.02;101241.63;7404561;19;1570;-43
2022/04/28 13:08:07;;;;;;;;;;;;;;;18.84;67.60;101246.03;7401965;19;1495;-43
2022/04/28 13:10:35;;;;;;;;;;;;;;;18.83;67.35;101265.75;7404287;19;1536;-43
2022/04/28 13:13:04;;;;;;;;;;;;;;;18.82;67.26;101258.69;7402981;19;1501;-44
2022/04/28 13:15:35;;;;;;;;;;;;;;;18.80;66.96;101239.19;7403899;19;1863;-43
2022/04/28 13:18:03;;;;;;;;;;;;;;;18.79;67.71;101264.28;7404433;19;1660;-44
2022/04/28 13:20:31;;;;;;;;;;;;;;;18.81;67.22;101272.19;7404573;19;1716;-41
2022/04/28 13:23:00;;;;;;;;;;;;;;;18.82;67.32;101273.88;7401240;19;1826;-41
2022/04/28 13:25:28;;;;;;;;;;;;;;;18.83;67.41;101291.69;7403399;19;1617;-41
2022/04/28 13:27:56;;;;;;;;;;;;;;;18.82;67.56;101273.88;7403300;19;1589;-41
2022/04/28 13:30:24;;;;;;;;;;;;;;;18.80;67.38;101278.53;7413752;19;1737;-41
2022/04/28 13:32:55;;;;;;;;;;;;;;;18.81;67.19;101278.41;7407387;19;1615;-41